WetterOnline ( https://www.wetteronline.de )

Wetter aktuell Ruzova

Aktuelles Wetter: Lichtenhain/Mittelndorf (352m)

6-stündlich | Neueste Meldungen
Ortszeit Temperatur Wetter
Di, 20.10. 20:00 8.8° C bedeckt
Di, 20.10. 14:00 7.8° C wolkig
Di, 20.10. 8:00 5.1° C bedeckt
Di, 20.10. 2:00 5.6° C wolkig
Mo, 19.10. 20:00 8.4° C bedeckt
Mo, 19.10. 14:00 9.4° C Sprühregen
Mo, 19.10. 8:00 6.8° C bedeckt
Mo, 19.10. 2:00 7.3° C leichter Regen
Ortszeit Temperatur Wetter
Mi, 21.10. 1:00 9.2° C bewölkt
Mi, 21.10. 0:50 9.2° C bewölkt
Mi, 21.10. 0:40 9.4° C bewölkt
Mi, 21.10. 0:30 8.9° C bedeckt
Mi, 21.10. 0:20 8.9° C bedeckt
Mi, 21.10. 0:10 8.9° C bedeckt
Mi, 21.10. 0:00 9.0° C bewölkt
Di, 20.10. 23:30 8.8° C -
Di, 20.10. 23:00 8.4° C bewölkt
Di, 20.10. 22:30 8.6° C bewölkt
Di, 20.10. 22:00 8.3° C wolkig
Ortszeit Relative Feuchte Sichtweite
Di, 20.10. 20:00 84% 18 km
Di, 20.10. 14:00 80% 18 km
Di, 20.10. 8:00 91% 12 km
Di, 20.10. 2:00 95% 9 km
Mo, 19.10. 20:00 85% 21 km
Mo, 19.10. 14:00 79% 13 km
Mo, 19.10. 8:00 93% 6 km
Mo, 19.10. 2:00 87% 16 km
Ortszeit Relative Feuchte Sichtweite
Mi, 21.10. 1:00 84% 23 km
Mi, 21.10. 0:50 84% -
Mi, 21.10. 0:40 83% -
Mi, 21.10. 0:30 85% 18 km
Mi, 21.10. 0:20 85% -
Mi, 21.10. 0:10 85% -
Mi, 21.10. 0:00 84% 19 km
Di, 20.10. 23:30 82% 22 km
Di, 20.10. 23:00 84% 20 km
Di, 20.10. 22:30 83% 20 km
Di, 20.10. 22:00 85% 18 km
Ortszeit Niederschlagsmenge Niederschlagsart
Di, 20.10. 20:00 0.0 l/m2 in 12 Std. -
Di, 20.10. 14:00 0.0 l/m2 in 6 Std. -
Di, 20.10. 8:00 0.0 l/m2 in 12 Std. -
Di, 20.10. 2:00 0.0 l/m2 in 6 Std. -
Mo, 19.10. 20:00 0.1 l/m2 in 12 Std. Regen
Mo, 19.10. 14:00 0.1 l/m2 in 6 Std. Regen
Mo, 19.10. 8:00 0.6 l/m2 in 12 Std. Regen
Mo, 19.10. 2:00 0.1 l/m2 in 6 Std. Regen
Ortszeit Niederschlagsmenge Niederschlagsart
Mi, 21.10. 1:00 0.0 l/m2 in 1 Std. -
Mi, 21.10. 0:50 keine Meldung -
Mi, 21.10. 0:40 keine Meldung -
Mi, 21.10. 0:30 0.0 l/m2 in 1 Std. -
Mi, 21.10. 0:20 keine Meldung -
Mi, 21.10. 0:10 keine Meldung -
Mi, 21.10. 0:00 0.0 l/m2 in 1 Std. -
Di, 20.10. 23:30 0.0 l/m2 in 1 Std. -
Di, 20.10. 23:00 0.0 l/m2 in 1 Std. -
Di, 20.10. 22:30 0.0 l/m2 in 1 Std. -
Di, 20.10. 22:00 0.0 l/m2 in 1 Std. -
Ortszeit Stärke Spitze Richtung
km/h Bft. km/h Grad Sektor
Di, 20.10. 20:00 24 4 44 150° SO
Di, 20.10. 14:00 29 5 54 170° S
Di, 20.10. 8:00 25 4 36 140° SO
Di, 20.10. 2:00 13 3 19 120° SO
Mo, 19.10. 20:00 4 1 14 140° SO
Mo, 19.10. 14:00 7 2 14 280° W
Mo, 19.10. 8:00 6 1 20 220° SW
Mo, 19.10. 2:00 11 2 22 250° W
Ortszeit Stärke Spitze Richtung
km/h Bft. km/h Grad Sektor
Mi, 21.10. 1:00 13 3 43 120° SO
Mi, 21.10. 0:50 13 3 - 120° SO
Mi, 21.10. 0:40 19 3 - 140° SO
Mi, 21.10. 0:30 24 4 41 150° SO
Mi, 21.10. 0:20 24 4 - 150° SO
Mi, 21.10. 0:10 22 4 - 140° SO
Mi, 21.10. 0:00 22 4 40 150° SO
Di, 20.10. 23:30 22 4 40 160° S
Di, 20.10. 23:00 22 4 40 160° S
Di, 20.10. 22:30 22 4 37 160° S
Di, 20.10. 22:00 24 4 39 160° S
Ortszeit Untergrenze Bedeckung Gattung
total tief tief mittel hoch
Di, 20.10. 20:00 5700 m 8/8 8/8 - - -
Di, 20.10. 14:00 420 m 7/8 5/8 - - -
Di, 20.10. 8:00 270 m 8/8 8/8 - - -
Di, 20.10. 2:00 9000 m 8/8 0/8 - - -
Mo, 19.10. 20:00 1500 m 8/8 8/8 - - -
Mo, 19.10. 14:00 660 m 8/8 8/8 - - -
Mo, 19.10. 8:00 390 m 8/8 8/8 - - -
Mo, 19.10. 2:00 570 m 8/8 8/8 - - -
Ortszeit Bedeckungsgrad in Achtel und Wolkenuntergrenze
Mi, 21.10. 1:00 6(2100m) 8(3300m) 8(3900m)
Mi, 21.10. 0:50 6(2100m) 8(3300m) 8(3900m)
Mi, 21.10. 0:40 4(2400m) 8(3600m) 8(5100m)
Mi, 21.10. 0:30 4(3000m) 8(3900m) 8(5100m)
Mi, 21.10. 0:20 4(3000m) 8(3900m) 8(5100m)
Mi, 21.10. 0:10 8(3300m) 8(5400m) 8(10500m)
Mi, 21.10. 0:00 7(3900m) 8(9000m) 8(10500m)
Di, 20.10. 23:30 -
Di, 20.10. 23:00 7(3300m) 8(8100m) 8(9000m)
Di, 20.10. 22:30 6(3600m) 7(7800m) 8(8700m)
Di, 20.10. 22:00 5(7500m) 8(8400m) 8(12000m)
Ortszeit Luftdruck NN (hPa) Tendenz (hPa in 3 Std.)
Di, 20.10. 20:00 1016 - 0,2
Di, 20.10. 14:00 1019 - 0,7
Di, 20.10. 8:00 1021 - 1,3
Di, 20.10. 2:00 1023 - 0,5
Mo, 19.10. 20:00 1024 + 0,6
Mo, 19.10. 14:00 1024 - 0,1
Mo, 19.10. 8:00 1023 + 0,6
Mo, 19.10. 2:00 1022 + 0,7
Ortszeit Luftdruck NN (hPa) Tendenz (hPa in 3 Std.)
Mi, 21.10. 1:00 1016 - 1,1
Mi, 21.10. 0:50 1016 keine Meldung
Mi, 21.10. 0:40 1016 keine Meldung
Mi, 21.10. 0:30 1016 - 0,4
Mi, 21.10. 0:20 1016 keine Meldung
Mi, 21.10. 0:10 1016 keine Meldung
Mi, 21.10. 0:00 1017 + 0,1
Di, 20.10. 23:30 1017 + 0,7
Di, 20.10. 23:00 1017 + 0,6
Di, 20.10. 22:30 1017 + 0,9
Di, 20.10. 22:00 1017 + 0,4
Ortszeit Schneehöhe (cm)
Di, 20.10. 20:00 0
Di, 20.10. 14:00 0
Di, 20.10. 8:00 0
Di, 20.10. 2:00 0
Mo, 19.10. 20:00 0
Mo, 19.10. 14:00 0
Mo, 19.10. 8:00 0
Mo, 19.10. 2:00 0
Ortszeit Schneehöhe (cm)
Mi, 21.10. 1:00 0
Mi, 21.10. 0:50 0
Mi, 21.10. 0:40 0
Mi, 21.10. 0:30 0
Mi, 21.10. 0:20 0
Mi, 21.10. 0:10 0
Mi, 21.10. 0:00 0
Di, 20.10. 23:30 0
Di, 20.10. 23:00 0
Di, 20.10. 22:30 0
Di, 20.10. 22:00 0
Link zu dieser Seite / Seite empfehlen

Das Wetter in ...